Time;durP1;ratioP1;P1;durP2;ratioP2;P2;SDS_P1;SDS_P2;PMS_P1;PMS_P2;Temp;Humidity;BMP_temperature;BMP_pressure;BME280_temperature;BME280_humidity;BME280_pressure;Samples;Min_cycle;Max_cycle;Signal;HPM_P1;HPM_P2
2024/03/06 00:01:42;;;;;;;19.80;12.90;;;;;;;4.66;86.37;100552.47;87338;263;136575;-74
2024/03/06 00:03:44;;;;;;;17.50;13.30;;;;;;;4.66;86.55;100559.89;87530;270;22570;-70
2024/03/06 00:05:48;;;;;;;27.90;14.70;;;;;;;4.69;86.58;100562.19;87404;269;136659;-70
2024/03/06 00:07:50;;;;;;;20.90;14.30;;;;;;;4.72;86.56;100564.06;87522;273;23388;-70
2024/03/06 00:09:53;;;;;;;24.40;15.30;;;;;;;4.70;86.69;100563.05;87518;274;135926;-71
2024/03/06 00:11:55;;;;;;;18.50;15.00;;;;;;;4.66;86.90;100561.11;87556;273;24068;-69
2024/03/06 00:13:57;;;;;;;19.20;14.70;;;;;;;4.62;87.06;100566.18;87287;275;135445;-71
2024/03/06 00:15:59;;;;;;;22.20;14.70;;;;;;;4.58;87.32;100562.15;87359;279;26306;-69
2024/03/06 00:18:02;;;;;;;28.00;14.90;;;;;;;4.55;87.77;100567.80;87604;271;137085;-70
2024/03/06 00:20:08;;;;;;;24.20;15.20;;;;;;;4.51;88.06;100569.20;87795;270;136246;-69
2024/03/06 00:22:10;;;;;;;21.70;15.20;;;;;;;4.46;88.40;100566.08;87692;270;24065;-69
2024/03/06 00:24:13;;;;;;;23.90;15.10;;;;;;;4.45;88.37;100565.30;87474;274;137739;-69
2024/03/06 00:26:15;;;;;;;23.40;15.60;;;;;;;4.44;88.78;100566.31;87695;270;25108;-69
2024/03/06 00:28:17;;;;;;;24.20;15.70;;;;;;;4.46;88.84;100565.07;87493;270;136765;-68
2024/03/06 00:30:19;;;;;;;22.10;14.50;;;;;;;4.47;88.93;100558.26;87559;266;22616;-71
2024/03/06 00:32:23;;;;;;;20.40;13.80;;;;;;;4.48;88.95;100557.45;87661;274;136686;-72
2024/03/06 00:34:26;;;;;;;19.30;14.50;;;;;;;4.48;89.25;100560.77;87896;270;23345;-70
2024/03/06 00:36:28;;;;;;;19.90;13.90;;;;;;;4.47;89.43;100562.52;87526;270;136093;-72
2024/03/06 00:38:30;;;;;;;21.10;15.70;;;;;;;4.44;89.32;100560.45;87513;270;22568;-71
2024/03/06 00:40:32;;;;;;;20.30;15.80;;;;;;;4.41;89.81;100568.33;87301;268;135928;-71
2024/03/06 00:42:35;;;;;;;22.50;15.00;;;;;;;4.37;89.95;100562.77;87670;267;24027;-72
2024/03/06 00:44:37;;;;;;;20.80;15.90;;;;;;;4.33;90.40;100567.75;87467;275;136159;-72
2024/03/06 00:46:39;;;;;;;24.10;16.30;;;;;;;4.29;90.91;100565.02;87464;268;24146;-69
2024/03/06 00:48:40;;;;;;;26.00;16.90;;;;;;;4.26;91.65;100567.05;87487;274;136228;-70
2024/03/06 00:50:43;;;;;;;18.40;15.70;;;;;;;4.25;92.02;100566.97;87866;269;22572;-68
2024/03/06 00:52:45;;;;;;;25.10;16.60;;;;;;;4.25;92.23;100573.16;87499;267;136756;-71
2024/03/06 00:54:47;;;;;;;21.90;14.30;;;;;;;4.23;92.55;100576.48;87721;263;22581;-69
2024/03/06 00:56:48;;;;;;;22.70;15.60;;;;;;;4.23;92.82;100573.37;87425;273;136945;-72
2024/03/06 00:58:50;;;;;;;24.70;15.50;;;;;;;4.18;93.18;100573.27;87593;277;22568;-71
2024/03/06 01:00:52;;;;;;;24.10;17.30;;;;;;;4.13;93.68;100570.23;87575;270;136061;-70
2024/03/06 01:02:54;;;;;;;22.20;16.70;;;;;;;4.08;94.24;100578.39;87526;277;24250;-71
2024/03/06 01:04:56;;;;;;;23.90;16.60;;;;;;;4.07;94.57;100571.86;87710;264;137368;-72
2024/03/06 01:06:58;;;;;;;24.40;17.20;;;;;;;4.03;95.15;100568.64;87581;277;22645;-78
2024/03/06 01:09:00;;;;;;;25.10;17.40;;;;;;;4.01;95.55;100570.45;87606;271;136757;-72
2024/03/06 01:11:03;;;;;;;24.50;17.30;;;;;;;4.03;95.83;100574.14;87741;267;22556;-70
2024/03/06 01:13:04;;;;;;;20.60;15.50;;;;;;;4.06;95.59;100577.14;87484;274;136728;-71
2024/03/06 01:15:08;;;;;;;23.70;15.70;;;;;;;4.09;95.95;100577.55;87516;269;26339;-69
2024/03/06 01:17:10;;;;;;;22.40;17.90;;;;;;;4.14;95.83;100580.54;87422;267;136791;-69
2024/03/06 01:19:12;;;;;;;31.70;19.50;;;;;;;4.12;95.89;100581.05;87540;266;24013;-69
2024/03/06 01:21:14;;;;;;;26.90;18.10;;;;;;;4.07;96.19;100577.94;87499;274;136016;-69
2024/03/06 01:23:16;;;;;;;27.10;18.10;;;;;;;4.03;96.55;100581.30;87491;269;24013;-69
2024/03/06 01:25:18;;;;;;;26.60;18.20;;;;;;;4.00;96.93;100581.81;87491;274;136079;-67
2024/03/06 01:27:20;;;;;;;24.20;19.60;;;;;;;3.97;97.13;100587.69;87516;271;22587;-67
2024/03/06 01:29:22;;;;;;;27.50;19.00;;;;;;;3.97;97.31;100584.36;87528;274;136690;-71
2024/03/06 01:31:23;;;;;;;23.60;17.70;;;;;;;4.01;97.29;100581.02;87565;274;22555;-74
2024/03/06 01:33:26;;;;;;;23.90;17.80;;;;;;;4.05;97.76;100586.27;87456;269;138297;-70
2024/03/06 01:35:27;;;;;;;26.00;18.00;;;;;;;4.06;97.94;100588.05;87729;267;23358;-70
2024/03/06 01:37:29;;;;;;;27.00;18.90;;;;;;;4.08;97.85;100592.32;87470;278;137758;-70
2024/03/06 01:39:31;;;;;;;26.70;18.80;;;;;;;4.05;97.93;100588.36;87459;270;22584;-68
2024/03/06 01:41:33;;;;;;;27.60;18.80;;;;;;;4.01;98.21;100585.22;87553;273;136229;-72
2024/03/06 01:43:39;;;;;;;27.40;19.20;;;;;;;3.97;98.64;100584.63;87560;273;22581;-69
2024/03/06 01:45:41;;;;;;;29.80;18.00;;;;;;;3.95;98.90;100590.83;87759;271;136051;-70
2024/03/06 01:47:43;;;;;;;28.70;21.30;;;;;;;3.92;99.22;100591.44;87775;271;22525;-74
2024/03/06 01:49:47;;;;;;;22.20;17.80;;;;;;;3.91;99.33;100591.38;87368;280;136263;-72
2024/03/06 01:51:53;;;;;;;28.40;19.70;;;;;;;3.92;99.57;100591.80;87850;271;24004;-71
2024/03/06 01:53:55;;;;;;;24.60;20.30;;;;;;;3.94;99.69;100592.52;87397;271;136907;-73
2024/03/06 01:55:58;;;;;;;26.40;19.90;;;;;;;3.94;99.78;100596.19;87750;271;25252;-72
2024/03/06 01:58:00;;;;;;;26.20;19.70;;;;;;;3.90;99.81;100595.83;87443;270;135789;-69
2024/03/06 02:00:03;;;;;;;23.60;18.70;;;;;;;3.84;100.00;100600.43;87896;270;22563;-68
2024/03/06 02:02:08;;;;;;;25.40;21.00;;;;;;;3.79;100.00;100602.12;89648;267;23440;-71
2024/03/06 02:04:11;;;;;;;34.70;22.40;;;;;;;3.77;100.00;100603.52;87568;271;136712;-71
2024/03/06 02:06:15;;;;;;;28.20;20.20;;;;;;;3.76;100.00;100603.09;87644;270;25112;-72
2024/03/06 02:08:17;;;;;;;28.60;21.70;;;;;;;3.75;100.00;100603.92;87849;269;137288;-68
2024/03/06 02:10:19;;;;;;;28.60;20.10;;;;;;;3.76;100.00;100604.70;87598;266;25172;-73
2024/03/06 02:12:21;;;;;;;29.10;20.30;;;;;;;3.77;100.00;100608.64;87661;274;138555;-69
2024/03/06 02:14:23;;;;;;;28.00;21.40;;;;;;;3.78;100.00;100605.77;87808;274;25076;-73
2024/03/06 02:16:25;;;;;;;24.10;19.50;;;;;;;3.75;100.00;100606.36;87616;273;137321;-71
2024/03/06 02:18:27;;;;;;;25.00;20.30;;;;;;;3.71;100.00;100607.25;87624;266;22572;-71
2024/03/06 02:20:29;;;;;;;25.80;19.60;;;;;;;3.66;100.00;100609.21;87663;269;137314;-70
2024/03/06 02:22:33;;;;;;;26.50;20.50;;;;;;;3.64;100.00;100616.67;87674;270;22598;-69
2024/03/06 02:24:36;;;;;;;32.50;22.00;;;;;;;3.64;100.00;100613.52;87487;267;136962;-70
2024/03/06 02:26:39;;;;;;;28.40;19.80;;;;;;;3.67;100.00;100615.18;87688;274;22568;-74
2024/03/06 02:28:50;;;;;;;27.50;20.40;;;;;;;3.68;100.00;100615.91;87545;270;137112;-69
2024/03/06 02:30:52;;;;;;;25.30;20.20;;;;;;;3.69;100.00;100617.73;87664;268;22555;-70
2024/03/06 02:32:53;;;;;;;29.80;21.00;;;;;;;3.70;100.00;100615.55;87711;271;136792;-73
2024/03/06 02:34:55;;;;;;;25.10;19.80;;;;;;;3.68;100.00;100617.19;87811;270;22651;-71
2024/03/06 02:36:57;;;;;;;26.40;20.20;;;;;;;3.64;100.00;100625.39;87506;270;136213;-70
2024/03/06 02:38:59;;;;;;;26.90;21.10;;;;;;;3.62;100.00;100622.80;87693;274;24039;-74
2024/03/06 02:41:01;;;;;;;33.00;22.30;;;;;;;3.59;100.00;100621.83;87708;273;137598;-68
2024/03/06 02:43:04;;;;;;;32.50;22.20;;;;;;;3.56;100.00;100625.77;87805;273;22738;-71
2024/03/06 02:45:07;;;;;;;30.00;21.70;;;;;;;3.55;100.00;100627.78;87676;265;138237;-71
2024/03/06 02:47:09;;;;;;;29.50;21.70;;;;;;;3.58;100.00;100626.66;87639;269;26026;-69
2024/03/06 02:49:11;;;;;;;27.30;20.60;;;;;;;3.60;100.00;100631.79;87636;270;137447;-69
2024/03/06 02:51:18;;;;;;;30.60;22.30;;;;;;;3.60;100.00;100628.43;87770;269;24418;-71
2024/03/06 02:53:20;;;;;;;30.80;21.70;;;;;;;3.56;100.00;100631.27;87539;269;136466;-71
2024/03/06 02:55:22;;;;;;;30.40;22.50;;;;;;;3.49;100.00;100629.69;87643;269;22583;-70
2024/03/06 02:57:28;;;;;;;29.20;23.00;;;;;;;3.42;100.00;100632.48;87572;273;136699;-70
2024/03/06 02:59:30;;;;;;;26.30;21.50;;;;;;;3.37;100.00;100635.23;87646;277;22950;-70
2024/03/06 03:01:31;;;;;;;32.50;22.40;;;;;;;3.36;100.00;100640.23;87732;267;138149;-70
2024/03/06 03:03:33;;;;;;;32.70;22.30;;;;;;;3.37;100.00;100642.63;87583;274;23382;-72
2024/03/06 03:05:36;;;;;;;29.30;22.00;;;;;;;3.38;100.00;100636.31;87626;270;136978;-69
2024/03/06 03:07:38;;;;;;;28.80;22.70;;;;;;;3.38;100.00;100638.48;87614;271;22584;-72
2024/03/06 03:09:39;;;;;;;28.30;22.00;;;;;;;3.35;100.00;100638.38;87649;271;136028;-69
2024/03/06 03:11:43;;;;;;;29.40;23.60;;;;;;;3.30;100.00;100643.69;87701;278;22630;-70
2024/03/06 03:13:45;;;;;;;29.80;22.80;;;;;;;3.27;100.00;100645.90;87893;269;137012;-71
2024/03/06 03:15:48;;;;;;;29.80;22.20;;;;;;;3.25;100.00;100640.92;87588;270;23741;-72
2024/03/06 03:17:49;;;;;;;32.20;22.80;;;;;;;3.27;100.00;100645.02;87494;269;137014;-70
2024/03/06 03:19:52;;;;;;;29.10;22.60;;;;;;;3.30;100.00;100643.81;87615;273;22629;-69
2024/03/06 03:21:54;;;;;;;29.60;23.70;;;;;;;3.34;100.00;100648.95;87424;265;137896;-75
2024/03/06 03:23:56;;;;;;;27.80;21.70;;;;;;;3.36;100.00;100645.65;87581;273;25213;-68
2024/03/06 03:25:58;;;;;;;26.10;21.00;;;;;;;3.37;100.00;100644.52;87403;266;136311;-72
2024/03/06 03:28:00;;;;;;;28.60;22.60;;;;;;;3.37;100.00;100643.61;87699;269;22573;-72
2024/03/06 03:30:03;;;;;;;29.90;23.40;;;;;;;3.31;100.00;100643.42;87738;278;136331;-74
2024/03/06 03:32:05;;;;;;;35.20;23.50;;;;;;;3.29;100.00;100649.23;87587;266;136840;-69
2024/03/06 03:34:08;;;;;;;30.80;23.40;;;;;;;3.26;100.00;100656.99;88397;273;22556;-70
2024/03/06 03:36:10;;;;;;;28.10;22.00;;;;;;;3.26;100.00;100653.69;87458;273;138019;-69
2024/03/06 03:38:12;;;;;;;32.30;23.20;;;;;;;3.26;100.00;100661.05;87477;270;22648;-70
2024/03/06 03:40:15;;;;;;;29.70;23.60;;;;;;;3.25;100.00;100659.36;87464;273;137212;-70
2024/03/06 03:42:16;;;;;;;32.00;23.70;;;;;;;3.24;100.00;100665.66;87594;266;24023;-70
2024/03/06 03:44:19;;;;;;;33.00;24.00;;;;;;;3.21;100.00;100668.90;87529;270;138178;-69
2024/03/06 03:46:21;;;;;;;32.40;23.40;;;;;;;3.15;100.00;100666.05;87693;271;22667;-72
2024/03/06 03:48:22;;;;;;;30.70;23.50;;;;;;;3.11;100.00;100673.38;87584;277;136349;-71
2024/03/06 03:50:24;;;;;;;29.20;23.60;;;;;;;3.07;100.00;100677.42;87578;267;22608;-68
2024/03/06 03:52:26;;;;;;;32.80;23.90;;;;;;;3.04;100.00;100678.06;87470;274;137606;-73
2024/03/06 03:54:28;;;;;;;28.60;22.50;;;;;;;3.05;100.00;100677.48;87605;265;25233;-70
2024/03/06 03:56:30;;;;;;;31.90;24.10;;;;;;;3.06;100.00;100675.29;87494;269;137766;-71
2024/03/06 03:58:31;;;;;;;28.80;21.90;;;;;;;3.05;100.00;100675.51;87554;266;22668;-70
2024/03/06 04:00:37;;;;;;;30.30;23.30;;;;;;;3.05;100.00;100681.16;87469;277;136563;-71
2024/03/06 04:02:39;;;;;;;33.50;23.90;;;;;;;3.02;100.00;100679.82;87611;270;25143;-72
2024/03/06 04:04:41;;;;;;;35.50;25.40;;;;;;;3.00;100.00;100683.71;87580;273;136062;-74
2024/03/06 04:06:47;;;;;;;36.70;25.20;;;;;;;2.98;100.00;100683.71;87641;278;22555;-69
2024/03/06 04:08:49;;;;;;;31.70;23.60;;;;;;;2.97;100.00;100689.75;87518;277;136707;-69
2024/03/06 04:10:51;;;;;;;32.40;23.80;;;;;;;2.95;100.00;100692.52;87627;269;22567;-71
2024/03/06 04:12:53;;;;;;;30.40;23.70;;;;;;;2.96;100.00;100694.20;87536;266;137884;-69
2024/03/06 04:14:55;;;;;;;35.50;24.20;;;;;;;2.96;100.00;100706.70;87591;273;22577;-70
2024/03/06 04:16:56;;;;;;;32.20;24.20;;;;;;;2.95;100.00;100703.95;87497;266;136632;-69
2024/03/06 04:18:58;;;;;;;28.40;22.80;;;;;;;2.94;100.00;100701.20;87604;276;22552;-69
2024/03/06 04:21:07;;;;;;;34.80;24.80;;;;;;;2.93;100.00;100712.89;87472;277;136283;-69
2024/03/06 04:23:09;;;;;;;38.90;25.90;;;;;;;2.87;100.00;100710.17;87647;274;22561;-69
2024/03/06 04:25:11;;;;;;;37.00;27.00;;;;;;;2.82;100.00;100716.98;87440;266;136353;-73
2024/03/06 04:27:13;;;;;;;37.70;27.50;;;;;;;2.76;100.00;100715.39;87571;270;22554;-69
2024/03/06 04:29:15;;;;;;;34.80;25.80;;;;;;;2.75;100.00;100711.40;87541;271;136976;-70
2024/03/06 04:31:17;;;;;;;38.70;27.20;;;;;;;2.76;100.00;100726.92;87563;271;22559;-71
2024/03/06 04:33:20;;;;;;;33.00;24.60;;;;;;;2.78;100.00;100722.91;87531;271;138204;-72
2024/03/06 04:35:22;;;;;;;31.70;24.70;;;;;;;2.79;100.00;100728.23;87378;277;22601;-72
2024/03/06 04:37:24;;;;;;;37.50;27.10;;;;;;;2.80;100.00;100728.39;87063;277;136830;-72
2024/03/06 04:39:25;;;;;;;34.60;26.00;;;;;;;2.75;100.00;100732.45;87142;270;22606;-75
2024/03/06 04:41:27;;;;;;;36.90;25.60;;;;;;;2.68;100.00;100741.44;87044;266;136681;-73
2024/03/06 04:43:29;;;;;;;36.40;27.80;;;;;;;2.62;100.00;100730.90;87138;270;25265;-73
2024/03/06 04:45:31;;;;;;;33.00;25.50;;;;;;;2.57;100.00;100737.11;87406;267;136331;-72
2024/03/06 04:47:32;;;;;;;37.20;26.10;;;;;;;2.57;100.00;100734.00;87092;271;22971;-71
2024/03/06 04:49:34;;;;;;;38.60;25.80;;;;;;;2.59;100.00;100739.45;87581;275;136912;-73
2024/03/06 04:51:36;;;;;;;36.50;25.30;;;;;;;2.60;100.00;100741.40;87539;271;22576;-71
2024/03/06 04:53:38;;;;;;;37.20;26.90;;;;;;;2.62;100.00;100745.64;86990;271;138137;-74
2024/03/06 04:55:39;;;;;;;38.80;26.00;;;;;;;2.63;100.00;100744.71;87556;267;25266;-72
2024/03/06 04:57:45;;;;;;;36.30;28.10;;;;;;;2.59;100.00;100748.02;86989;270;136489;-72
2024/03/06 04:59:47;;;;;;;38.70;28.40;;;;;;;2.53;100.00;100748.14;87605;269;22775;-73
2024/03/06 05:01:49;;;;;;;38.20;28.70;;;;;;;2.47;100.00;100747.77;87480;271;137575;-73
2024/03/06 05:03:51;;;;;;;39.90;29.40;;;;;;;2.43;100.00;100744.92;87615;266;24027;-66
2024/03/06 05:06:07;;;;;;;;;;;;;;;2.42;100.00;100747.33;87037;267;25281;-70
2024/03/06 05:08:23;;;;;;;38.40;26.80;;;;;;;2.42;100.00;100754.30;87099;269;123370;-69
2024/03/06 05:10:39;;;;;;;39.10;25.80;;;;;;;2.43;100.00;100756.49;86653;271;746723;-70
2024/03/06 05:12:55;;;;;;;44.00;25.90;;;;;;;2.45;100.00;100760.05;87101;267;137949;-68
2024/03/06 05:15:11;;;;;;;37.30;26.60;;;;;;;2.46;100.00;100764.27;87056;267;22698;-71
2024/03/06 05:17:27;;;;;;;37.50;27.10;;;;;;;2.42;100.00;100764.44;87025;269;136727;-68
2024/03/06 05:19:42;;;;;;;35.60;26.30;;;;;;;2.39;100.00;100760.72;87083;270;22576;-66
2024/03/06 05:21:58;;;;;;;42.00;28.00;;;;;;;2.36;100.00;100755.70;87022;278;135777;-69
2024/03/06 05:24:14;;;;;;;42.60;28.60;;;;;;;2.35;100.00;100756.95;87023;269;137436;-71
2024/03/06 05:26:29;;;;;;;44.30;30.10;;;;;;;2.38;100.00;100757.79;87126;266;23999;-71
2024/03/06 05:28:45;;;;;;;35.20;27.00;;;;;;;2.41;100.00;100762.08;86962;271;137292;-71
2024/03/06 05:31:00;;;;;;;38.50;26.20;;;;;;;2.45;100.00;100767.42;87095;270;22552;-69
2024/03/06 05:33:16;;;;;;;;;;;;;;;2.47;100.00;100771.47;86859;274;137447;-71
2024/03/06 05:35:31;;;;;;;37.80;24.80;;;;;;;2.49;100.00;100767.38;87067;269;25132;-69
2024/03/06 05:37:47;;;;;;;37.70;26.00;;;;;;;2.48;100.00;100766.77;87019;266;136743;-72
2024/03/06 05:40:04;;;;;;;37.40;26.40;;;;;;;2.49;100.00;100773.33;87570;269;137814;-72
2024/03/06 05:42:20;;;;;;;35.10;25.90;;;;;;;2.48;100.00;100773.33;87816;271;22517;-72
2024/03/06 05:44:36;;;;;;;46.80;28.40;;;;;;;2.44;100.00;100775.70;87561;274;137788;-72
2024/03/06 05:46:51;;;;;;;37.10;25.90;;;;;;;2.40;100.00;100777.77;87687;269;22700;-72
2024/03/06 05:49:07;;;;;;;39.00;27.10;;;;;;;2.37;100.00;100775.22;87543;266;137804;-74
2024/03/06 05:51:22;;;;;;;40.50;27.50;;;;;;;2.38;100.00;100777.22;87781;278;22566;-73
2024/03/06 05:53:38;;;;;;;39.70;26.10;;;;;;;2.38;100.00;100780.05;87579;266;137414;-73
2024/03/06 05:55:54;;;;;;;;;;;;;;;2.35;100.00;100789.22;87744;266;22536;-74
2024/03/06 05:58:10;;;;;;;40.10;26.40;;;;;;;2.31;100.00;100782.89;87857;278;23707;-71
2024/03/06 06:00:17;;;;;;;38.20;27.50;;;;;;;2.26;100.00;100789.29;87501;278;137785;-71
2024/03/06 06:02:20;;;;;;;42.40;27.90;;;;;;;2.19;100.00;100795.29;87428;274;22544;-73
2024/03/06 06:04:22;;;;;;;38.30;28.40;;;;;;;2.15;100.00;100802.09;87636;267;136491;-73
2024/03/06 06:06:24;;;;;;;37.90;27.50;;;;;;;2.13;100.00;100798.21;87751;266;24080;-73
2024/03/06 06:08:26;;;;;;;41.80;28.60;;;;;;;2.11;100.00;100794.80;87115;274;136636;-71
2024/03/06 06:10:29;;;;;;;49.90;28.40;;;;;;;2.15;100.00;100789.95;87142;267;24010;-72
2024/03/06 06:12:30;;;;;;;42.80;26.60;;;;;;;2.20;100.00;100793.80;87441;278;136777;-73
2024/03/06 06:14:32;;;;;;;44.60;27.30;;;;;;;2.25;100.00;100797.42;87710;274;22526;-71
2024/03/06 06:16:35;;;;;;;42.40;29.00;;;;;;;2.31;100.00;100800.10;87002;278;137985;-72
2024/03/06 06:18:41;;;;;;;44.30;29.90;;;;;;;2.35;100.00;100800.13;88019;274;22551;-72
2024/03/06 06:20:43;;;;;;;45.70;28.00;;;;;;;2.33;100.00;100803.78;87717;275;137486;-71
2024/03/06 06:22:45;;;;;;;44.70;30.00;;;;;;;2.30;100.00;100807.71;87618;267;26357;-72
2024/03/06 06:24:48;;;;;;;43.40;28.30;;;;;;;2.28;100.00;100805.77;86988;271;137566;-72
2024/03/06 06:26:50;;;;;;;40.10;29.60;;;;;;;2.28;100.00;100809.13;87113;278;22559;-71
2024/03/06 06:28:51;;;;;;;44.60;29.60;;;;;;;2.28;100.00;100813.10;87120;269;136860;-74
2024/03/06 06:30:53;;;;;;;47.80;30.90;;;;;;;2.32;100.00;100809.81;87027;269;25144;-73
2024/03/06 06:32:56;;;;;;;42.80;30.20;;;;;;;2.35;100.00;100814.34;86916;267;137040;-71
2024/03/06 06:34:58;;;;;;;44.70;27.80;;;;;;;2.34;100.00;100824.38;87786;270;22563;-72
2024/03/06 06:37:01;;;;;;;42.80;29.30;;;;;;;2.29;100.00;100819.70;87077;269;137415;-69
2024/03/06 06:39:05;;;;;;;44.70;30.30;;;;;;;2.21;100.00;100827.92;87659;270;24004;-75
2024/03/06 06:41:08;;;;;;;45.10;29.90;;;;;;;2.12;100.00;100826.11;87544;269;137657;-72
2024/03/06 06:43:10;;;;;;;46.10;30.60;;;;;;;2.06;100.00;100825.70;87015;271;22571;-73
2024/03/06 06:45:12;;;;;;;47.40;29.20;;;;;;;2.07;100.00;100824.60;87441;278;137680;-72
2024/03/06 06:47:14;;;;;;;50.00;30.70;;;;;;;2.11;100.00;100827.79;87983;271;22579;-73
2024/03/06 06:49:17;;;;;;;42.60;29.20;;;;;;;2.17;100.00;100829.82;87531;274;137433;-73
2024/03/06 06:51:19;;;;;;;41.20;31.10;;;;;;;2.21;100.00;100829.48;87601;270;22573;-73
2024/03/06 06:53:20;;;;;;;46.40;29.60;;;;;;;2.23;100.00;100835.06;87123;271;137686;-75
2024/03/06 06:55:24;;;;;;;43.30;31.40;;;;;;;2.26;100.00;100835.41;87152;267;26246;-72
2024/03/06 06:57:26;;;;;;;42.80;30.30;;;;;;;2.29;100.00;100836.39;87422;271;136581;-72
2024/03/06 06:59:28;;;;;;;42.20;28.40;;;;;;;2.30;100.00;100838.63;87637;275;22822;-73
2024/03/06 07:01:30;;;;;;;43.20;30.20;;;;;;;2.30;100.00;100835.47;87627;273;136290;-74
2024/03/06 07:03:32;;;;;;;47.60;28.80;;;;;;;2.33;100.00;100845.00;87666;270;22806;-73
2024/03/06 07:05:34;;;;;;;42.70;28.10;;;;;;;2.38;100.00;100847.73;87511;267;137424;-72
2024/03/06 07:07:36;;;;;;;39.50;27.80;;;;;;;2.42;100.00;100838.49;87471;271;22621;-73
2024/03/06 07:09:38;;;;;;;42.00;28.50;;;;;;;2.45;100.00;100845.95;88032;263;136570;-73
2024/03/06 07:11:39;;;;;;;40.00;29.00;;;;;;;2.45;100.00;100847.53;87807;270;22688;-71
2024/03/06 07:13:42;;;;;;;44.50;29.90;;;;;;;2.42;100.00;100843.60;87037;265;136718;-72
2024/03/06 07:15:44;;;;;;;44.10;30.00;;;;;;;2.39;100.00;100848.54;87370;273;25220;-71
2024/03/06 07:17:47;;;;;;;47.20;30.40;;;;;;;2.39;100.00;100848.74;87425;269;136674;-73
2024/03/06 07:19:49;;;;;;;42.70;28.50;;;;;;;2.38;100.00;100853.58;87694;270;25181;-73
2024/03/06 07:21:51;;;;;;;40.80;28.40;;;;;;;2.34;99.92;100850.66;87697;270;138304;-70
2024/03/06 07:23:53;;;;;;;46.20;29.20;;;;;;;2.38;99.91;100850.20;87120;274;22711;-73
2024/03/06 07:25:57;;;;;;;46.10;29.80;;;;;;;2.43;100.00;100848.73;87493;269;136602;-71
2024/03/06 07:28:00;;;;;;;45.60;29.40;;;;;;;2.50;99.98;100851.73;87106;273;22585;-71
2024/03/06 07:30:02;;;;;;;42.80;29.90;;;;;;;2.55;99.40;100853.76;87526;269;137665;-71
2024/03/06 07:32:07;;;;;;;44.50;28.60;;;;;;;2.53;98.85;100851.44;86975;270;136572;-72
2024/03/06 07:34:10;;;;;;;47.60;30.20;;;;;;;2.49;99.26;100853.90;87447;272;22510;-70
2024/03/06 07:36:11;;;;;;;42.40;28.90;;;;;;;2.47;99.38;100850.40;87347;274;136284;-72
2024/03/06 07:38:14;;;;;;;45.20;30.10;;;;;;;2.47;99.29;100857.72;87632;270;22585;-72
2024/03/06 07:40:16;;;;;;;41.60;29.30;;;;;;;2.51;99.14;100855.79;87047;269;136204;-70
2024/03/06 07:42:18;;;;;;;40.20;27.10;;;;;;;2.57;99.13;100854.16;87045;270;25194;-71
2024/03/06 07:44:20;;;;;;;43.10;28.00;;;;;;;2.64;97.71;100866.02;86989;278;136942;-71
2024/03/06 07:46:22;;;;;;;42.90;27.80;;;;;;;2.70;96.42;100870.46;87686;278;22866;-71
2024/03/06 07:48:24;;;;;;;42.10;29.10;;;;;;;2.72;95.79;100862.17;87028;266;136486;-72
2024/03/06 07:50:27;;;;;;;45.10;28.80;;;;;;;2.70;95.08;100866.23;87962;267;25125;-71
2024/03/06 07:52:29;;;;;;;40.80;27.30;;;;;;;2.68;95.50;100871.30;87625;274;137321;-73
2024/03/06 07:54:32;;;;;;;41.00;27.80;;;;;;;2.69;95.13;100869.63;87261;266;22565;-73
2024/03/06 07:56:35;;;;;;;;;;;;;;;2.73;94.97;100871.42;87565;269;136005;-75
2024/03/06 07:58:37;;;;;;;40.10;26.50;;;;;;;2.78;95.02;100869.31;87822;277;23284;-71
2024/03/06 08:00:39;;;;;;;37.00;26.00;;;;;;;2.83;93.93;100872.94;87505;276;135944;-72
2024/03/06 08:02:45;;;;;;;37.80;25.70;;;;;;;2.84;92.54;100875.30;87597;276;22560;-72
2024/03/06 08:04:48;;;;;;;38.90;25.30;;;;;;;2.83;92.30;100878.89;87563;271;136290;-73
2024/03/06 08:06:53;;;;;;;36.70;24.60;;;;;;;2.87;92.34;100878.73;87907;270;25143;-73
2024/03/06 08:08:55;;;;;;;33.80;24.50;;;;;;;2.97;91.89;100880.02;87218;275;136435;-72
2024/03/06 08:11:00;;;;;;;30.70;23.00;;;;;;;3.10;91.27;100890.94;87153;274;25086;-72
2024/03/06 08:13:03;;;;;;;33.70;23.30;;;;;;;3.17;90.79;100886.16;87812;275;135870;-71
2024/03/06 08:15:09;;;;;;;31.70;23.40;;;;;;;3.21;90.14;100886.36;87529;275;24290;-73
2024/03/06 08:17:11;;;;;;;37.10;23.00;;;;;;;3.24;89.32;100884.33;87660;273;137344;-74
2024/03/06 08:19:12;;;;;;;31.70;23.20;;;;;;;3.25;88.92;100896.50;87709;269;26631;-74
2024/03/06 08:21:14;;;;;;;35.10;23.60;;;;;;;3.25;88.12;100896.34;87621;269;136359;-73
2024/03/06 08:23:16;;;;;;;32.80;23.00;;;;;;;3.23;88.02;100892.48;87522;270;22557;-72
2024/03/06 08:25:18;;;;;;;34.00;24.50;;;;;;;3.22;87.68;100889.37;87479;270;136163;-71
2024/03/06 08:27:20;;;;;;;37.10;24.40;;;;;;;3.22;87.88;100891.17;87500;279;22630;-73
2024/03/06 08:29:22;;;;;;;39.00;24.80;;;;;;;3.22;87.15;100899.63;87533;273;136110;-72
2024/03/06 08:31:25;;;;;;;34.70;24.20;;;;;;;3.20;86.76;100894.51;87702;268;25077;-73
2024/03/06 08:33:27;;;;;;;32.80;22.60;;;;;;;3.17;86.85;100902.27;87582;269;136050;-72
2024/03/06 08:35:29;;;;;;;34.40;24.70;;;;;;;3.14;86.73;100895.33;87721;270;24560;-71
2024/03/06 08:37:35;;;;;;;36.90;26.40;;;;;;;3.11;87.18;100907.83;87404;272;136245;-72
2024/03/06 08:39:36;;;;;;;39.20;25.00;;;;;;;3.12;87.04;100905.34;87638;266;23971;-72
2024/03/06 08:41:38;;;;;;;35.70;26.70;;;;;;;3.15;87.06;100907.20;87394;278;136610;-72
2024/03/06 08:43:40;;;;;;;43.20;26.90;;;;;;;3.18;86.89;100900.07;87554;279;23748;-72
2024/03/06 08:45:42;;;;;;;33.80;24.10;;;;;;;3.19;86.58;100908.42;87304;271;135806;-72
2024/03/06 08:47:45;;;;;;;36.10;25.50;;;;;;;3.18;86.62;100905.19;87976;278;23496;-71
2024/03/06 08:49:47;;;;;;;42.50;28.00;;;;;;;3.17;87.13;100904.19;87619;265;136392;-73
2024/03/06 08:51:49;;;;;;;35.00;25.00;;;;;;;3.19;87.14;100908.64;87680;271;25792;-71
2024/03/06 08:53:51;;;;;;;34.40;26.00;;;;;;;3.22;87.12;100910.99;87534;273;137783;-73
2024/03/06 08:55:52;;;;;;;36.90;26.80;;;;;;;3.26;87.20;100913.81;87583;269;24195;-73
2024/03/06 08:57:54;;;;;;;36.90;25.40;;;;;;;3.28;86.90;100909.24;87578;269;137172;-71
2024/03/06 08:59:56;;;;;;;34.10;25.80;;;;;;;3.24;86.29;100912.46;87720;266;22584;-73
2024/03/06 09:01:58;;;;;;;38.40;26.10;;;;;;;3.14;86.46;100911.48;87582;266;135993;-75
2024/03/06 09:04:00;;;;;;;35.00;25.60;;;;;;;3.08;87.12;100911.83;87619;278;22576;-73
2024/03/06 09:06:02;;;;;;;37.10;24.90;;;;;;;3.05;87.40;100916.40;87578;273;137280;-71
2024/03/06 09:08:14;;;;;;;35.50;24.30;;;;;;;3.11;87.13;100916.09;87183;273;136846;-70
2024/03/06 09:12:28;;;;;;;37.20;25.20;;;;;;;3.10;87.40;100914.09;85385;300;603086;-73
2024/03/06 09:14:30;;;;;;;33.30;25.40;;;;;;;3.02;87.73;100920.59;86594;290;23622;-74
2024/03/06 09:16:32;;;;;;;34.60;24.90;;;;;;;2.94;88.07;100926.79;86707;283;135469;-73
2024/03/06 09:18:35;;;;;;;35.90;24.60;;;;;;;2.83;88.63;100917.47;86370;280;25138;-72
2024/03/06 09:20:37;;;;;;;36.80;26.50;;;;;;;2.78;89.39;100921.45;86206;287;137034;-70
2024/03/06 09:22:40;;;;;;;37.30;26.40;;;;;;;2.75;89.33;100920.63;86821;284;22576;-75
2024/03/06 09:24:41;;;;;;;38.10;27.30;;;;;;;2.68;89.35;100929.71;86912;288;135611;-72
2024/03/06 09:26:45;;;;;;;35.10;25.70;;;;;;;2.63;89.67;100925.42;85810;282;770980;-71
2024/03/06 09:28:48;;;;;;;36.10;26.80;;;;;;;2.60;90.59;100925.64;86760;279;136522;-72
2024/03/06 09:30:50;;;;;;;38.60;27.00;;;;;;;2.61;91.18;100925.71;87081;268;24126;-73